Home   Weather   Spain   Valencia   Past weeks
Flag for Spain

Past Weather in Valencia, Valencia, Spain — Yesterday and Last 2 Weeks

Currently: 54 °F. Passing clouds. (Weather station: Valencia / Aeropuerto, Spain). See more current weather

Past Weather in Valencia — Graph

°F

Valencia Temperature Yesterday

Maximum temperature yesterday: 61 °F (at 2:00 pm)
Minimum temperature yesterday: 50 °F (at 8:00 am)
Average temperature yesterday: 55 °F

High & Low Weather Summary for the Past Weeks

 TemperatureHumidityPressure
High63 °F (Feb 19, 1:30 pm)100% (Feb 19, 4:00 am)30.63 "Hg (Feb 19, 4:00 am)
Low43 °F (Mar 5, 8:00 am)52% (Feb 22, 1:00 pm)29.68 "Hg (Feb 21, 5:00 pm)
Average55 °F83%30.24 "Hg
* Reported Feb 18 10:00 pm — Mar 5 10:30 pm, Valencia. Weather by CustomWeather, © 2021

Note: Actual official high and low records may vary slightly from our data, if they occured in-between our weather recording intervals... More about our weather records

Valencia Weather History for the Previous 24 Hours

Scroll right to see more
 ConditionsComfort  
Time TempWeatherWind HumidityBarometerVisibility
10:30 pm
Fri, Mar 5
54 °FPassing clouds.3 mph94%30.12 "Hg6 mi
10:00 pm54 °FPassing clouds.2 mph88%30.09 "HgN/A
9:30 pm55 °FClear.No wind88%30.09 "Hg10 mi
9:00 pm55 °FClear.2 mph88%30.09 "Hg10 mi
8:30 pm55 °FPassing clouds.3 mph88%30.09 "HgN/A
7:30 pm57 °FClear.5 mph77%30.07 "Hg10 mi
7:00 pm57 °FPassing clouds.6 mph77%30.07 "HgN/A
6:30 pm59 °FPassing clouds.8 mph72%30.04 "HgN/A
6:00 pm59 °FPassing clouds.9 mph72%30.04 "HgN/A
5:30 pm61 °FPassing clouds.10 mph68%30.04 "HgN/A
5:00 pm61 °FPassing clouds.9 mph68%30.04 "HgN/A
4:30 pm63 °FPassing clouds.10 mph64%30.04 "HgN/A
4:00 pm63 °FPassing clouds.8 mph56%30.04 "HgN/A
3:30 pm63 °FPassing clouds.8 mph59%30.04 "HgN/A
3:00 pm63 °FPassing clouds.8 mph56%30.04 "HgN/A
2:30 pm63 °FPassing clouds.8 mph59%30.04 "HgN/A
1:30 pm61 °FPassing clouds.6 mph59%30.07 "HgN/A
1:00 pm61 °FPassing clouds.6 mph59%30.07 "HgN/A
12:30 pm59 °FPassing clouds.6 mph63%30.07 "HgN/A
12:00 pm59 °FPassing clouds.2 mph63%30.07 "HgN/A
11:30 am57 °FSunny.2 mph72%30.07 "Hg10 mi
11:00 am57 °FSunny.No wind72%30.09 "Hg10 mi
10:30 am55 °FSunny.No wind77%30.09 "Hg10 mi
10:00 am52 °FSunny.No wind88%30.09 "Hg10 mi
9:30 am50 °FSunny.No wind94%30.09 "Hg10 mi
9:00 am46 °FSunny.2 mph100%30.07 "Hg10 mi
8:30 am45 °FSunny.2 mph100%30.07 "Hg10 mi
8:00 am43 °FPassing clouds.5 mph100%30.07 "HgN/A
7:30 am45 °FPassing clouds.5 mph100%30.07 "HgN/A
7:13 am45 °FClear.7 mph100%30.04 "Hg5 mi
6:50 am45 °FQuite cool.7 mph100%30.04 "Hg1 mi
6:30 am45 °FFog.5 mph100%30.07 "Hg1 mi
6:13 am45 °FQuite cool.5 mph100%30.07 "Hg1 mi
6:00 am46 °FFog.2 mph100%30.07 "Hg0 mi
5:30 am46 °FFog.3 mph100%30.07 "Hg0 mi
5:00 am48 °FFog.3 mph94%30.07 "Hg0 mi
4:30 am46 °FFog.3 mph93%30.07 "Hg1 mi
4:00 am46 °FClear.1 mph100%30.07 "Hg4 mi
3:30 am46 °FClear.3 mph100%30.09 "Hg4 mi
3:00 am46 °FFog.No wind100%30.09 "Hg2 mi
2:30 am46 °FFog.3 mph100%30.09 "Hg2 mi
2:00 am48 °FFog.5 mph94%30.09 "Hg2 mi
1:30 am48 °FFog.5 mph94%30.09 "Hg2 mi
1:00 am48 °FClear.3 mph94%30.09 "Hg4 mi
12:30 am50 °FPassing clouds.3 mph94%30.12 "Hg4 mi
12:00 am54 °FPassing clouds.No wind94%30.12 "Hg5 mi
11:30 pm
Thu, Mar 4
54 °FPassing clouds.1 mph94%30.12 "HgN/A
11:00 pm55 °FPassing clouds.2 mph88%30.12 "HgN/A
Weather by CustomWeather, © 2021

See weather overview